Time;durP1;ratioP1;P1;durP2;ratioP2;P2;SDS_P1;SDS_P2;PMS_P1;PMS_P2;Temp;Humidity;BMP_temperature;BMP_pressure;BME280_temperature;BME280_humidity;BME280_pressure;Samples;Min_cycle;Max_cycle;Signal;HPM_P1;HPM_P2
2022/11/29 00:00:19;;;;;;;20.53;18.20;;;;;;;6.20;100.00;96404.50;5031980;28;20234;-74
2022/11/29 00:02:44;;;;;;;20.23;18.13;;;;;;;6.18;100.00;96407.34;5032356;28;20186;-74
2022/11/29 00:05:09;;;;;;;19.80;17.67;;;;;;;6.16;100.00;96411.16;5032206;28;20194;-74
2022/11/29 00:07:35;;;;;;;20.37;17.83;;;;;;;6.20;100.00;96404.50;5032165;28;20213;-74
2022/11/29 00:10:01;;;;;;;19.40;17.50;;;;;;;6.12;100.00;96404.75;5032144;28;20195;-74
2022/11/29 00:12:26;;;;;;;19.87;17.43;;;;;;;6.17;100.00;96400.53;5032025;28;20178;-74
2022/11/29 00:14:52;;;;;;;20.23;18.00;;;;;;;6.19;100.00;96398.50;5031640;28;20657;-74
2022/11/29 00:17:17;;;;;;;19.77;17.67;;;;;;;6.23;100.00;96410.13;5014213;28;20199;-74
2022/11/29 00:19:44;;;;;;;19.90;16.77;;;;;;;6.23;100.00;96402.31;5031413;28;20647;-74
2022/11/29 00:22:09;;;;;;;23.07;18.30;;;;;;;6.22;100.00;96397.31;5031613;28;20599;-75
2022/11/29 00:24:35;;;;;;;20.87;17.87;;;;;;;6.16;100.00;96398.13;5032027;28;20182;-74
2022/11/29 00:27:01;;;;;;;21.60;17.50;;;;;;;6.20;100.00;96399.31;5031895;28;20572;-74
2022/11/29 00:29:26;;;;;;;19.83;17.70;;;;;;;6.17;100.00;96395.34;5031837;28;20197;-74
2022/11/29 00:31:52;;;;;;;20.87;18.20;;;;;;;6.29;100.00;96397.28;5031699;28;20465;-74
2022/11/29 00:34:17;;;;;;;19.13;17.20;;;;;;;6.32;100.00;96399.44;5030825;28;20203;-74
2022/11/29 00:36:42;;;;;;;19.97;17.60;;;;;;;6.26;100.00;96399.28;5031871;28;20215;-74
2022/11/29 00:39:10;;;;;;;19.20;17.20;;;;;;;6.27;100.00;96394.88;5031781;28;20273;-74
2022/11/29 00:41:36;;;;;;;20.73;18.07;;;;;;;6.26;100.00;96396.69;5031846;28;20240;-74
2022/11/29 00:44:01;;;;;;;21.73;18.13;;;;;;;6.24;100.00;96396.06;5031202;28;20186;-74
2022/11/29 00:46:27;;;;;;;20.67;18.30;;;;;;;6.25;100.00;96396.88;5031888;28;20194;-74
2022/11/29 00:48:53;;;;;;;20.13;18.07;;;;;;;6.24;100.00;96397.91;5031130;28;20229;-74
2022/11/29 00:51:18;;;;;;;19.70;17.57;;;;;;;6.25;100.00;96395.06;5032000;28;20683;-75
2022/11/29 00:53:44;;;;;;;19.47;17.37;;;;;;;6.31;100.00;96397.84;5031784;28;20528;-74
2022/11/29 00:56:09;;;;;;;18.27;16.23;;;;;;;6.25;100.00;96396.88;5031590;28;20214;-74
2022/11/29 00:58:35;;;;;;;21.30;18.20;;;;;;;6.29;100.00;96398.06;5013070;28;20186;-74
2022/11/29 01:01:01;;;;;;;20.97;17.53;;;;;;;6.25;100.00;96400.28;5030788;28;20245;-74
2022/11/29 01:03:26;;;;;;;20.37;18.27;;;;;;;6.32;100.00;96407.25;5034786;28;20182;-74
2022/11/29 01:05:52;;;;;;;21.57;17.80;;;;;;;6.18;100.00;96404.75;5035808;28;20339;-74
2022/11/29 01:08:17;;;;;;;21.50;17.30;;;;;;;6.22;100.00;96403.31;5035537;28;20270;-74
2022/11/29 01:10:43;;;;;;;22.60;18.60;;;;;;;6.29;100.00;96403.28;5035263;28;20342;-74
2022/11/29 01:13:09;;;;;;;20.63;17.30;;;;;;;6.23;100.00;96396.31;5034705;28;20205;-74
2022/11/29 01:15:35;;;;;;;19.63;17.50;;;;;;;6.32;100.00;96404.66;5035195;28;20193;-74
2022/11/29 01:18:01;;;;;;;20.60;16.80;;;;;;;6.29;100.00;96405.88;5035256;28;20705;-74
2022/11/29 01:20:26;;;;;;;20.50;17.30;;;;;;;6.21;100.00;96409.50;5034683;28;20215;-74
2022/11/29 01:22:52;;;;;;;20.83;17.07;;;;;;;6.28;100.00;96401.69;5034733;28;20174;-73
2022/11/29 01:25:18;;;;;;;19.57;17.53;;;;;;;6.24;100.00;96401.28;5035117;28;20197;-74
2022/11/29 01:27:44;;;;;;;21.63;17.33;;;;;;;6.31;100.00;96408.25;5035363;28;20527;-74
2022/11/29 01:30:10;;;;;;;20.47;17.50;;;;;;;6.34;100.00;96406.06;5035218;28;20190;-74
2022/11/29 01:32:36;;;;;;;21.57;18.63;;;;;;;6.39;100.00;96415.81;5035056;28;20229;-74
2022/11/29 01:35:01;;;;;;;21.73;19.43;;;;;;;6.17;100.00;96410.94;5034962;28;20228;-74
2022/11/29 01:37:28;;;;;;;19.13;17.13;;;;;;;6.18;100.00;96415.16;5034756;28;20234;-74
2022/11/29 01:39:53;;;;;;;21.10;17.77;;;;;;;6.25;100.00;96413.28;5017247;28;20258;-74
2022/11/29 01:42:18;;;;;;;19.77;17.70;;;;;;;6.33;100.00;96419.25;5034926;28;20594;-74
2022/11/29 01:44:44;;;;;;;20.37;17.83;;;;;;;6.29;100.00;96413.69;5034868;28;20222;-74
2022/11/29 01:47:11;;;;;;;18.73;16.70;;;;;;;6.39;100.00;96410.63;5033698;28;20523;-74
2022/11/29 01:49:48;;;;;;;19.03;16.97;;;;;;;6.31;100.00;96408.25;5034917;28;20218;-74
2022/11/29 01:52:20;;;;;;;19.20;16.80;;;;;;;6.25;100.00;96413.28;5034831;28;20244;-74
2022/11/29 01:54:48;;;;;;;18.67;16.67;;;;;;;6.34;100.00;96413.84;5034579;28;20209;-74
2022/11/29 01:57:14;;;;;;;18.77;16.77;;;;;;;6.38;100.00;96403.81;5033654;28;20585;-74
2022/11/29 01:59:49;;;;;;;22.20;17.30;;;;;;;6.30;100.00;96410.06;5016731;28;20265;-74
2022/11/29 02:02:20;;;;;;;20.03;17.93;;;;;;;6.32;100.00;96404.66;5034163;28;20194;-74
2022/11/29 02:04:47;;;;;;;17.73;15.70;;;;;;;6.41;100.00;96406.00;5034467;28;20183;-74
2022/11/29 02:07:12;;;;;;;18.33;16.30;;;;;;;6.42;100.00;96407.59;5033914;28;20218;-74
2022/11/29 02:09:38;;;;;;;19.43;16.67;;;;;;;6.28;100.00;96409.47;5034071;28;20210;-74
2022/11/29 02:12:18;;;;;;;18.40;16.50;;;;;;;6.32;100.00;96402.84;5034565;28;20290;-74
2022/11/29 02:14:54;;;;;;;17.97;16.10;;;;;;;6.37;100.00;96402.22;5033487;28;20651;-74
2022/11/29 02:17:28;;;;;;;17.37;15.57;;;;;;;6.40;100.00;96404.41;5034080;28;20190;-74
2022/11/29 02:20:31;;;;;;;18.80;16.10;;;;;;;6.37;100.00;96412.63;5033538;28;20312;-75
2022/11/29 02:23:11;;;;;;;16.07;14.07;;;;;;;6.31;100.00;96408.25;5034075;28;20204;-74
2022/11/29 02:26:01;;;;;;;17.03;15.33;;;;;;;6.32;100.00;96405.44;5033977;28;20640;-74
2022/11/29 02:28:35;;;;;;;17.13;15.47;;;;;;;6.40;100.00;96409.63;5033888;28;20211;-74
2022/11/29 02:31:01;;;;;;;17.43;15.67;;;;;;;6.52;100.00;96407.94;5033525;28;20591;-74
2022/11/29 02:34:11;;;;;;;18.63;15.37;;;;;;;6.45;100.00;96410.59;5033677;28;20179;-74
2022/11/29 02:36:46;;;;;;;18.03;16.10;;;;;;;6.44;100.00;96418.59;4985311;28;20250;-74
2022/11/29 02:39:47;;;;;;;17.87;16.20;;;;;;;6.37;100.00;96416.03;5033592;28;20185;-74
2022/11/29 02:42:31;;;;;;;17.33;15.53;;;;;;;6.44;100.00;96419.41;5034098;28;20182;-74
2022/11/29 02:45:02;;;;;;;17.10;15.30;;;;;;;6.50;100.00;96415.16;5033805;28;20456;-74
2022/11/29 02:47:45;;;;;;;17.33;15.63;;;;;;;6.45;100.00;96409.78;5027658;28;20644;-73
2022/11/29 02:50:20;;;;;;;16.13;14.53;;;;;;;6.47;100.00;96418.16;5033704;28;20186;-73
2022/11/29 02:53:16;;;;;;;16.63;15.03;;;;;;;6.42;100.00;96416.19;5033475;28;20204;-73
2022/11/29 02:55:47;;;;;;;17.30;15.57;;;;;;;6.45;100.00;96413.19;5033693;28;20202;-73
2022/11/29 02:58:17;;;;;;;15.77;14.20;;;;;;;6.40;100.00;96423.44;5033429;28;20288;-73
2022/11/29 03:01:14;;;;;;;14.80;13.30;;;;;;;6.36;100.00;96417.03;5032515;28;20647;-73
2022/11/29 03:03:52;;;;;;;15.13;12.90;;;;;;;6.43;100.00;96414.41;4999767;28;20252;-72
2022/11/29 03:06:38;;;;;;;14.77;13.00;;;;;;;6.48;100.00;96417.97;5033274;28;20181;-73
2022/11/29 03:09:11;;;;;;;14.63;13.23;;;;;;;6.47;100.00;96420.78;5032573;28;20503;-72
2022/11/29 03:11:57;;;;;;;14.87;13.50;;;;;;;6.40;100.00;96415.63;5032965;28;20183;-73
2022/11/29 03:14:27;;;;;;;13.97;12.67;;;;;;;6.41;100.00;96426.84;5032843;28;20179;-73
2022/11/29 03:17:03;;;;;;;15.10;13.40;;;;;;;6.40;100.00;96430.44;5032592;28;20206;-73
2022/11/29 03:19:52;;;;;;;15.23;13.73;;;;;;;6.51;100.00;96427.19;5032418;28;20616;-73
2022/11/29 03:22:26;;;;;;;15.07;13.57;;;;;;;6.51;100.00;96430.59;5033249;28;20179;-73
2022/11/29 03:25:00;;;;;;;13.83;12.63;;;;;;;6.46;100.00;96435.63;5032151;28;20194;-72
2022/11/29 03:27:40;;;;;;;14.87;13.37;;;;;;;6.46;100.00;96438.22;5032895;28;20273;-73
2022/11/29 03:30:09;;;;;;;14.30;12.90;;;;;;;6.49;100.00;96434.38;5033492;28;20190;-73
2022/11/29 03:33:09;;;;;;;15.03;12.60;;;;;;;6.52;100.00;96436.59;5032809;28;20290;-73
2022/11/29 03:35:53;;;;;;;14.70;13.23;;;;;;;6.48;100.00;96430.19;5032800;28;20233;-73
2022/11/29 03:38:40;;;;;;;14.20;12.83;;;;;;;6.44;100.00;96437.63;5032796;28;20185;-73
2022/11/29 03:41:08;;;;;;;12.73;11.53;;;;;;;6.37;100.00;96429.03;5032262;28;20634;-73
2022/11/29 03:43:46;;;;;;;14.27;12.87;;;;;;;6.57;100.00;96437.56;5032859;28;20221;-73
2022/11/29 03:46:22;;;;;;;13.33;11.93;;;;;;;6.47;100.00;96442.41;5032137;28;20186;-73
2022/11/29 03:48:54;;;;;;;13.90;12.60;;;;;;;6.53;100.00;96436.34;5032728;28;20642;-73
2022/11/29 03:51:36;;;;;;;13.80;12.50;;;;;;;6.46;100.00;96437.41;5032599;28;20241;-73
2022/11/29 03:54:14;;;;;;;15.70;13.63;;;;;;;6.49;100.00;96443.00;5032339;28;20183;-73
2022/11/29 03:56:40;;;;;;;14.70;13.23;;;;;;;6.43;100.00;96449.03;5032404;28;20294;-73
2022/11/29 03:59:08;;;;;;;15.57;13.97;;;;;;;6.44;100.00;96449.84;5031186;28;20269;-73
2022/11/29 04:02:03;;;;;;;14.03;12.63;;;;;;;6.48;100.00;96446.59;5031983;28;20235;-73
2022/11/29 04:04:46;;;;;;;14.10;12.70;;;;;;;6.50;100.00;96447.19;5032327;28;20194;-73
2022/11/29 04:07:27;;;;;;;13.57;12.17;;;;;;;6.61;100.00;96445.75;5031965;28;20185;-73
2022/11/29 04:10:11;;;;;;;13.63;11.97;;;;;;;6.56;100.00;96445.56;5032372;28;20591;-73
2022/11/29 04:12:45;;;;;;;13.10;11.80;;;;;;;6.44;100.00;96450.63;5031887;28;20182;-73
2022/11/29 04:15:34;;;;;;;14.93;13.50;;;;;;;6.46;100.00;96446.03;5031686;28;20599;-73
2022/11/29 04:18:17;;;;;;;13.93;12.43;;;;;;;6.45;100.00;96449.63;5031684;28;20179;-74
2022/11/29 04:20:58;;;;;;;14.13;12.50;;;;;;;6.54;100.00;96453.59;5016847;28;20178;-74
2022/11/29 04:23:50;;;;;;;14.20;12.90;;;;;;;6.49;100.00;96457.81;5024497;28;20279;-74
2022/11/29 04:26:28;;;;;;;13.93;12.47;;;;;;;6.45;100.00;96454.03;5027911;28;20228;-73
2022/11/29 04:29:20;;;;;;;14.43;13.00;;;;;;;6.58;100.00;96462.56;5031910;28;20177;-73
2022/11/29 04:32:23;;;;;;;13.63;12.43;;;;;;;6.56;100.00;96453.38;5031895;28;20194;-73
2022/11/29 04:35:23;;;;;;;14.70;12.00;;;;;;;6.58;100.00;96466.97;4998721;28;20228;-73
2022/11/29 04:38:23;;;;;;;13.40;12.10;;;;;;;6.54;100.00;96466.59;5031597;28;20266;-73
2022/11/29 04:41:12;;;;;;;13.90;12.80;;;;;;;6.57;100.00;96466.19;5014230;28;20232;-73
2022/11/29 04:43:53;;;;;;;13.27;12.07;;;;;;;6.60;100.00;96470.97;5031819;28;20171;-73
2022/11/29 04:46:44;;;;;;;12.10;11.00;;;;;;;6.60;100.00;96468.38;5030689;28;20216;-73
2022/11/29 04:49:19;;;;;;;11.93;10.87;;;;;;;6.69;100.00;96474.13;5031943;28;20185;-73
2022/11/29 04:51:47;;;;;;;13.57;12.17;;;;;;;6.76;100.00;96477.47;5030793;28;20174;-73
2022/11/29 04:54:21;;;;;;;12.37;11.27;;;;;;;6.60;100.00;96472.78;5032069;28;20217;-73
2022/11/29 04:56:54;;;;;;;13.33;12.27;;;;;;;6.57;100.00;96476.59;5031479;28;20659;-73
2022/11/29 04:59:33;;;;;;;12.57;11.37;;;;;;;6.62;100.00;96481.19;5031601;28;20198;-74
2022/11/29 05:02:06;;;;;;;12.87;11.67;;;;;;;6.58;100.00;96480.78;5031569;28;20230;-73
2022/11/29 05:04:49;;;;;;;12.77;11.77;;;;;;;6.67;100.00;96482.16;5031948;28;20511;-73
2022/11/29 05:07:38;;;;;;;13.50;12.30;;;;;;;6.66;100.00;96490.16;5031459;28;20178;-74
2022/11/29 05:10:40;;;;;;;12.10;11.10;;;;;;;6.63;100.00;96486.16;5032226;28;20277;-73
2022/11/29 05:13:22;;;;;;;11.87;10.97;;;;;;;6.68;100.00;96488.16;5031549;28;20182;-74
2022/11/29 05:16:11;;;;;;;11.10;10.20;;;;;;;6.52;100.00;96488.66;5031184;28;20151;-75
2022/11/29 05:19:30;;;;;;;11.37;10.47;;;;;;;6.62;100.00;96487.19;5031203;28;20596;-73
2022/11/29 05:22:12;;;;;;;11.00;10.07;;;;;;;6.65;100.00;96488.56;4916701;29;20214;-73
2022/11/29 05:24:59;;;;;;;10.27;9.40;;;;;;;6.62;100.00;96489.81;5017293;28;20233;-73
2022/11/29 05:27:46;;;;;;;10.00;9.00;;;;;;;6.55;100.00;96480.41;5031451;28;20205;-73
2022/11/29 05:30:18;;;;;;;10.50;9.50;;;;;;;6.61;100.00;96496.00;5030931;28;20669;-73
2022/11/29 05:32:52;;;;;;;11.07;10.27;;;;;;;6.71;100.00;96498.16;5031407;28;20321;-73
2022/11/29 05:35:42;;;;;;;10.97;9.87;;;;;;;6.62;100.00;96491.59;5031308;28;20641;-73
2022/11/29 05:38:17;;;;;;;10.27;9.47;;;;;;;6.62;100.00;96502.03;5031206;28;20179;-73
2022/11/29 05:40:45;;;;;;;9.87;9.07;;;;;;;6.67;100.00;96495.19;5031659;28;20639;-74
2022/11/29 05:43:10;;;;;;;9.73;8.93;;;;;;;6.74;100.00;96502.97;5031760;28;20179;-74
2022/11/29 05:45:56;;;;;;;9.47;8.77;;;;;;;6.68;100.00;96503.78;5030666;28;20262;-74
2022/11/29 05:48:36;;;;;;;8.70;8.00;;;;;;;6.60;100.00;96504.03;4997218;28;20206;-74
2022/11/29 05:51:27;;;;;;;8.90;8.20;;;;;;;6.59;100.00;96505.81;5034922;28;20174;-68
2022/11/29 05:54:16;;;;;;;9.50;8.80;;;;;;;6.62;100.00;96507.22;4996403;28;20199;-74
2022/11/29 05:56:51;;;;;;;10.00;9.13;;;;;;;6.66;100.00;96506.59;5034505;28;20222;-74
2022/11/29 05:59:26;;;;;;;9.80;9.00;;;;;;;6.71;100.00;96508.56;5034395;28;20217;-74
2022/11/29 06:02:11;;;;;;;10.33;9.60;;;;;;;6.59;100.00;96512.84;5033884;28;20222;-74
2022/11/29 06:05:02;;;;;;;9.97;9.13;;;;;;;6.54;100.00;96505.66;5034544;28;20221;-73
2022/11/29 06:07:39;;;;;;;9.10;8.23;;;;;;;6.65;100.00;96517.22;5034109;28;20217;-74
2022/11/29 06:10:11;;;;;;;9.80;8.87;;;;;;;6.54;100.00;96513.47;5034314;28;20171;-74
2022/11/29 06:12:37;;;;;;;9.17;8.47;;;;;;;6.64;100.00;96513.00;5034057;28;20187;-74
2022/11/29 06:15:16;;;;;;;9.40;8.57;;;;;;;6.62;100.00;96517.63;5034035;28;20175;-74
2022/11/29 06:17:51;;;;;;;10.43;9.63;;;;;;;6.53;100.00;96517.06;5034025;28;20217;-74
2022/11/29 06:20:40;;;;;;;10.43;9.57;;;;;;;6.49;100.00;96522.91;5034531;28;20204;-74
2022/11/29 06:23:44;;;;;;;9.53;8.83;;;;;;;6.57;100.00;96530.47;5033947;28;20183;-74
2022/11/29 06:26:55;;;;;;;10.67;9.87;;;;;;;6.55;100.00;96529.88;4979410;28;20197;-74
2022/11/29 06:29:36;;;;;;;9.80;9.10;;;;;;;6.43;100.00;96541.94;5034444;28;20214;-74
2022/11/29 06:32:21;;;;;;;12.07;11.17;;;;;;;6.47;100.00;96533.50;5016097;28;20278;-74
2022/11/29 06:35:01;;;;;;;11.20;10.07;;;;;;;6.60;100.00;96536.06;5034477;28;20262;-74
2022/11/29 06:37:40;;;;;;;12.90;11.60;;;;;;;6.55;100.00;96538.50;5033750;28;20264;-74
2022/11/29 06:40:10;;;;;;;13.57;12.10;;;;;;;6.61;100.00;96545.47;5033907;28;20615;-74
2022/11/29 06:42:35;;;;;;;13.57;12.47;;;;;;;6.61;100.00;96550.69;5034077;28;20186;-74
2022/11/29 06:45:01;;;;;;;13.73;12.43;;;;;;;6.42;100.00;96550.75;5033952;28;20213;-74
2022/11/29 06:47:35;;;;;;;13.67;12.47;;;;;;;6.49;100.00;96541.91;5032872;28;20214;-74
2022/11/29 06:50:20;;;;;;;13.57;12.37;;;;;;;6.36;100.00;96554.97;5034142;28;20183;-74
2022/11/29 06:52:53;;;;;;;13.17;11.97;;;;;;;6.39;100.00;96551.97;5015779;28;20186;-74
2022/11/29 06:55:26;;;;;;;14.10;12.80;;;;;;;6.40;100.00;96556.19;5033805;28;20171;-73
2022/11/29 06:57:54;;;;;;;14.03;12.23;;;;;;;6.47;100.00;96550.94;5033482;28;20705;-73
2022/11/29 07:00:21;;;;;;;15.40;13.77;;;;;;;6.34;100.00;96556.19;5033081;28;20222;-73
2022/11/29 07:03:05;;;;;;;14.10;12.80;;;;;;;6.36;100.00;96559.38;5033254;28;20175;-74
2022/11/29 07:05:33;;;;;;;16.07;14.57;;;;;;;6.48;100.00;96565.56;5033387;28;20206;-73
2022/11/29 07:08:20;;;;;;;14.37;12.97;;;;;;;6.62;100.00;96572.31;5033531;28;20608;-74
2022/11/29 07:10:48;;;;;;;14.77;13.37;;;;;;;6.41;100.00;96567.41;5033498;28;20704;-66
2022/11/29 07:13:15;;;;;;;14.90;13.33;;;;;;;6.44;100.00;96570.38;5033023;28;20187;-67
2022/11/29 07:15:53;;;;;;;15.40;14.00;;;;;;;6.46;100.00;96571.00;5032498;28;20187;-70
2022/11/29 07:19:02;;;;;;;13.97;12.70;;;;;;;6.44;100.00;96572.19;5020765;28;20182;-69
2022/11/29 07:22:00;;;;;;;15.00;13.60;;;;;;;6.42;100.00;96577.59;5032705;28;20186;-70
2022/11/29 07:24:36;;;;;;;14.57;13.13;;;;;;;6.57;100.00;96580.75;5032909;28;20189;-69
2022/11/29 07:27:18;;;;;;;15.40;13.77;;;;;;;6.66;100.00;96589.13;5031410;28;20391;-70
2022/11/29 07:29:44;;;;;;;16.27;14.50;;;;;;;6.55;100.00;96589.75;5031585;28;20196;-70
2022/11/29 07:32:33;;;;;;;15.03;13.43;;;;;;;6.42;100.00;96593.19;5031852;28;20559;-70
2022/11/29 07:34:58;;;;;;;14.20;12.80;;;;;;;6.34;100.00;96587.44;5032254;28;20220;-70
2022/11/29 07:37:34;;;;;;;15.20;13.70;;;;;;;6.53;100.00;96589.97;5032709;28;20203;-70
2022/11/29 07:40:11;;;;;;;15.07;13.67;;;;;;;6.46;100.00;96591.81;5032557;28;20178;-69
2022/11/29 07:43:02;;;;;;;14.60;13.13;;;;;;;6.51;100.00;96589.38;5032743;28;20573;-70
2022/11/29 07:45:35;;;;;;;15.10;13.47;;;;;;;6.49;100.00;96591.38;5032429;28;20179;-70
2022/11/29 07:48:00;;;;;;;15.33;13.80;;;;;;;6.47;100.00;96587.38;5032612;28;20194;-70
2022/11/29 07:50:26;;;;;;;16.03;13.87;;;;;;;6.62;100.00;96591.34;5033068;28;20175;-69
2022/11/29 07:52:53;;;;;;;15.33;13.87;;;;;;;6.71;100.00;96601.53;5032509;28;20229;-73
2022/11/29 07:55:20;;;;;;;14.93;13.37;;;;;;;6.71;100.00;96598.91;5014675;28;20487;-69
2022/11/29 07:57:47;;;;;;;15.73;14.13;;;;;;;6.71;100.00;96599.72;5032454;28;20198;-69
2022/11/29 08:00:13;;;;;;;16.03;14.43;;;;;;;6.67;100.00;96596.75;5032139;28;20218;-70
2022/11/29 08:02:40;;;;;;;16.37;14.67;;;;;;;6.58;100.00;96605.75;5032157;28;20195;-70
2022/11/29 08:05:06;;;;;;;15.37;13.97;;;;;;;6.70;100.00;96603.31;5032508;28;20190;-70
2022/11/29 08:07:36;;;;;;;15.30;13.83;;;;;;;6.49;100.00;96603.59;5032278;28;20236;-69
2022/11/29 08:10:03;;;;;;;15.67;14.17;;;;;;;6.66;100.00;96608.16;5014652;28;20300;-69
2022/11/29 08:12:28;;;;;;;13.43;12.23;;;;;;;6.54;100.00;96604.59;5032073;28;20263;-69
2022/11/29 08:14:54;;;;;;;15.57;14.17;;;;;;;6.59;100.00;96602.16;5032299;28;20242;-70
2022/11/29 08:17:19;;;;;;;14.93;13.67;;;;;;;6.58;100.00;96604.97;5031609;28;20552;-70
2022/11/29 08:19:44;;;;;;;18.37;16.57;;;;;;;6.51;100.00;96607.63;5031976;28;20658;-70
2022/11/29 08:22:11;;;;;;;14.77;13.33;;;;;;;6.48;100.00;96609.81;5031791;28;20226;-69
2022/11/29 08:24:36;;;;;;;16.57;14.97;;;;;;;6.54;100.00;96609.00;5031990;28;20273;-69
2022/11/29 08:27:02;;;;;;;13.40;12.20;;;;;;;6.53;100.00;96613.41;5031233;28;20290;-69
2022/11/29 08:29:27;;;;;;;15.30;13.90;;;;;;;6.58;100.00;96617.97;5032431;28;20557;-69
2022/11/29 08:31:53;;;;;;;15.87;14.47;;;;;;;6.54;100.00;96617.59;5031956;28;20257;-69
2022/11/29 08:34:20;;;;;;;16.10;14.60;;;;;;;6.60;100.00;96615.97;5032059;28;20187;-69
2022/11/29 08:36:45;;;;;;;16.47;14.87;;;;;;;6.70;100.00;96621.56;5031630;28;20203;-70
2022/11/29 08:39:11;;;;;;;14.23;12.97;;;;;;;6.63;100.00;96620.81;5032048;28;20186;-70
2022/11/29 08:41:36;;;;;;;13.83;12.63;;;;;;;6.53;100.00;96623.00;5032063;28;20187;-70
2022/11/29 08:44:04;;;;;;;14.70;13.40;;;;;;;6.55;100.00;96624.41;5032203;28;20280;-70
2022/11/29 08:49:13;;;;;;;14.83;13.53;;;;;;;6.75;100.00;96626.94;5031951;28;20606;-71
2022/11/29 08:51:38;;;;;;;14.17;12.87;;;;;;;6.66;100.00;96626.38;5032117;28;20178;-70
2022/11/29 08:54:03;;;;;;;12.97;11.67;;;;;;;6.74;100.00;96627.97;5014028;28;20635;-70
2022/11/29 08:56:29;;;;;;;12.00;11.03;;;;;;;6.54;100.00;96629.81;5031880;28;20203;-70
2022/11/29 08:58:54;;;;;;;12.23;11.23;;;;;;;6.59;100.00;96633.41;5014098;28;20618;-70
2022/11/29 09:01:20;;;;;;;13.17;12.07;;;;;;;6.67;100.00;96637.59;5031613;28;20305;-70
2022/11/29 09:04:05;;;;;;;12.57;11.57;;;;;;;6.57;100.00;96632.84;5031631;28;20175;-70
2022/11/29 09:06:39;;;;;;;12.27;11.27;;;;;;;6.61;100.00;96643.63;5031771;28;20178;-70
2022/11/29 09:09:05;;;;;;;11.90;10.80;;;;;;;6.56;100.00;96633.03;5031474;28;20272;-70
2022/11/29 09:11:33;;;;;;;11.13;10.23;;;;;;;6.51;100.00;96640.66;5031735;28;20674;-70
2022/11/29 09:14:01;;;;;;;11.27;10.23;;;;;;;6.50;100.00;96639.06;5031913;28;20273;-70
2022/11/29 09:16:31;;;;;;;10.33;9.43;;;;;;;6.61;100.00;96643.63;5030852;28;20203;-70
2022/11/29 09:18:56;;;;;;;10.00;9.20;;;;;;;6.62;100.00;96655.66;5013985;28;20190;-71
2022/11/29 09:21:24;;;;;;;9.97;9.17;;;;;;;6.60;100.00;96649.84;5031866;28;20220;-70
2022/11/29 09:23:58;;;;;;;10.43;9.53;;;;;;;6.50;100.00;96652.88;5033809;28;20262;-70
2022/11/29 09:26:26;;;;;;;10.27;9.40;;;;;;;6.40;100.00;96655.09;5035225;28;20269;-70
2022/11/29 09:28:52;;;;;;;10.53;9.50;;;;;;;6.41;100.00;96650.69;5035502;28;20237;-75
2022/11/29 09:31:18;;;;;;;10.70;9.67;;;;;;;6.49;100.00;96650.47;5035207;28;20188;-70
2022/11/29 09:33:44;;;;;;;12.03;10.77;;;;;;;6.60;100.00;96652.44;5035094;28;20220;-70
2022/11/29 09:36:11;;;;;;;12.63;11.33;;;;;;;6.60;100.00;96663.66;5034945;28;20289;-70
2022/11/29 09:38:36;;;;;;;12.07;10.77;;;;;;;6.38;100.00;96658.91;5034978;28;20201;-70
2022/11/29 09:41:18;;;;;;;12.87;11.57;;;;;;;6.50;100.00;96665.09;5034782;28;20179;-70
2022/11/29 09:43:59;;;;;;;12.77;11.47;;;;;;;6.61;100.00;96665.25;5035262;28;20190;-70
2022/11/29 09:46:45;;;;;;;13.40;12.00;;;;;;;6.58;100.00;96665.66;5034285;28;20196;-70
2022/11/29 09:49:50;;;;;;;11.80;10.60;;;;;;;6.46;100.00;96674.31;5035454;28;20183;-70
2022/11/29 09:52:22;;;;;;;12.33;11.10;;;;;;;6.55;100.00;96663.47;4956090;28;20272;-71
2022/11/29 09:54:56;;;;;;;12.77;11.50;;;;;;;6.56;100.00;96674.69;4942293;29;20707;-70
2022/11/29 09:57:23;;;;;;;13.33;11.93;;;;;;;6.58;100.00;96664.84;4992242;28;20218;-71
2022/11/29 09:59:54;;;;;;;16.80;12.30;;;;;;;6.64;100.00;96667.44;5033675;28;20225;-70
2022/11/29 10:02:44;;;;;;;37.00;17.77;;;;;;;6.53;100.00;96669.88;5034351;28;20179;-69
2022/11/29 10:05:16;;;;;;;22.53;13.83;;;;;;;6.53;100.00;96675.06;5034444;28;20237;-70
2022/11/29 10:07:55;;;;;;;196.17;19.87;;;;;;;6.46;100.00;96669.91;5033604;28;20179;-70
2022/11/29 10:10:29;;;;;;;44.43;15.57;;;;;;;6.50;100.00;96675.50;5034630;28;20189;-70
2022/11/29 10:13:24;;;;;;;171.80;17.03;;;;;;;6.46;100.00;96679.53;5034640;28;20607;-70
2022/11/29 10:15:54;;;;;;;87.13;15.37;;;;;;;6.44;100.00;96676.31;5028474;28;20187;-70
2022/11/29 10:18:28;;;;;;;68.03;14.50;;;;;;;6.47;100.00;96681.91;5034043;28;20658;-70
2022/11/29 10:20:58;;;;;;;314.60;22.03;;;;;;;6.35;100.00;96678.34;5034638;28;20163;-70
2022/11/29 10:23:46;;;;;;;785.60;39.40;;;;;;;6.33;100.00;96682.94;5034663;28;20404;-70
2022/11/29 10:26:12;;;;;;;92.10;18.03;;;;;;;6.24;100.00;96684.16;4989360;28;20237;-69
2022/11/29 10:28:46;;;;;;;29.07;20.10;;;;;;;6.22;100.00;96676.53;5034398;28;20274;-70
2022/11/29 10:31:25;;;;;;;31.37;22.10;;;;;;;6.35;100.00;96669.72;5033946;28;20270;-70
2022/11/29 10:33:52;;;;;;;44.73;23.20;;;;;;;6.31;100.00;96677.13;5033084;28;20631;-69
2022/11/29 10:37:03;;;;;;;32.40;21.80;;;;;;;6.28;100.00;96671.53;5033835;28;21023;-70
2022/11/29 10:39:41;;;;;;;31.30;21.43;;;;;;;6.37;100.00;96678.13;4934062;29;20201;-70
2022/11/29 10:45:09;;;;;;;30.27;21.83;;;;;;;6.30;100.00;96677.34;4929765;29;20262;-70
2022/11/29 10:47:35;;;;;;;26.53;20.60;;;;;;;6.18;100.00;96666.75;4916019;29;20292;-70
2022/11/29 10:50:01;;;;;;;28.27;20.63;;;;;;;6.24;100.00;96677.13;4931070;29;20289;-70
2022/11/29 10:52:26;;;;;;;29.93;22.10;;;;;;;6.28;100.00;96676.72;4933912;29;20190;-69
2022/11/29 10:54:55;;;;;;;28.10;21.03;;;;;;;6.46;100.00;96669.09;4927369;29;20206;-73
2022/11/29 10:57:21;;;;;;;35.37;21.83;;;;;;;6.38;100.00;96675.31;4915172;29;20432;-70
2022/11/29 10:59:59;;;;;;;26.97;21.97;;;;;;;6.32;100.00;96675.31;4915250;29;20377;-70
2022/11/29 11:02:24;;;;;;;27.57;21.80;;;;;;;6.36;100.00;96674.72;4924858;29;20202;-70
2022/11/29 11:04:50;;;;;;;22.07;19.37;;;;;;;6.28;100.00;96679.34;4932584;29;20198;-70
2022/11/29 11:07:39;;;;;;;25.50;21.70;;;;;;;6.36;100.00;96676.50;4920331;29;20191;-71
2022/11/29 11:10:25;;;;;;;23.13;19.67;;;;;;;6.25;100.00;96668.31;4977029;28;20233;-72
2022/11/29 11:13:19;;;;;;;21.10;18.93;;;;;;;6.23;100.00;96685.94;5033396;28;20265;-70
2022/11/29 11:15:44;;;;;;;23.37;19.23;;;;;;;6.30;100.00;96682.53;5032917;28;20539;-69
2022/11/29 11:18:20;;;;;;;23.40;19.73;;;;;;;6.35;100.00;96682.75;5033068;28;20218;-69
2022/11/29 11:20:52;;;;;;;23.57;19.90;;;;;;;6.26;100.00;96685.53;5033327;28;20186;-69
2022/11/29 11:23:44;;;;;;;21.80;19.40;;;;;;;6.16;100.00;96677.34;5018455;28;20194;-69
2022/11/29 11:26:12;;;;;;;23.13;20.73;;;;;;;6.12;100.00;96680.56;5019556;28;20589;-72
2022/11/29 11:28:56;;;;;;;22.73;20.33;;;;;;;6.07;100.00;96678.56;5032958;28;20198;-70
2022/11/29 11:31:38;;;;;;;25.87;23.23;;;;;;;6.15;100.00;96678.34;5032813;28;20191;-69
2022/11/29 11:34:29;;;;;;;29.17;26.37;;;;;;;6.19;100.00;96676.13;5015266;28;20220;-70
2022/11/29 11:37:15;;;;;;;22.67;20.40;;;;;;;6.09;100.00;96681.75;5032730;28;20202;-70
2022/11/29 11:39:41;;;;;;;21.53;19.00;;;;;;;6.11;100.00;96678.94;5032940;28;20183;-70
2022/11/29 11:44:56;;;;;;;24.77;21.27;;;;;;;6.17;100.00;96684.16;5031603;28;20202;-70
2022/11/29 11:47:27;;;;;;;24.67;22.03;;;;;;;6.27;100.00;96686.34;5032201;28;20194;-70
2022/11/29 11:49:59;;;;;;;25.10;21.43;;;;;;;6.12;100.00;96686.56;5032895;28;20616;-71
2022/11/29 11:52:36;;;;;;;23.97;21.00;;;;;;;6.13;100.00;96685.53;5017513;28;20205;-70
2022/11/29 11:55:06;;;;;;;23.30;20.80;;;;;;;6.16;100.00;96686.94;5032622;28;20665;-70
2022/11/29 11:57:31;;;;;;;24.77;20.10;;;;;;;6.22;100.00;96692.16;5032553;28;20233;-71
2022/11/29 11:59:58;;;;;;;24.87;20.90;;;;;;;6.19;100.00;96694.34;5032167;28;20627;-71
2022/11/29 12:02:39;;;;;;;21.97;19.00;;;;;;;6.08;100.00;96697.53;5031069;28;20183;-70